sensor_id;sensor_type;location;lat;lon;timestamp;P1;durP1;ratioP1;P2;durP2;ratioP2
9496;SDS011;4786;51.270;4.456;2023-04-06T00:02:03;21.03;;;17.77;;
9496;SDS011;4786;51.270;4.456;2023-04-06T00:04:29;21.07;;;17.70;;
9496;SDS011;4786;51.270;4.456;2023-04-06T00:06:55;21.67;;;16.93;;
9496;SDS011;4786;51.270;4.456;2023-04-06T00:09:22;21.40;;;16.40;;
9496;SDS011;4786;51.270;4.456;2023-04-06T00:11:48;21.00;;;16.97;;
9496;SDS011;4786;51.270;4.456;2023-04-06T00:14:13;20.33;;;16.23;;
9496;SDS011;4786;51.270;4.456;2023-04-06T00:16:42;18.23;;;15.70;;
9496;SDS011;4786;51.270;4.456;2023-04-06T00:19:08;20.00;;;16.53;;
9496;SDS011;4786;51.270;4.456;2023-04-06T00:21:34;22.50;;;16.80;;
9496;SDS011;4786;51.270;4.456;2023-04-06T00:24:00;19.93;;;16.20;;
9496;SDS011;4786;51.270;4.456;2023-04-06T00:26:26;18.00;;;15.60;;
9496;SDS011;4786;51.270;4.456;2023-04-06T00:28:53;21.77;;;17.40;;
9496;SDS011;4786;51.270;4.456;2023-04-06T00:31:18;20.87;;;16.70;;
9496;SDS011;4786;51.270;4.456;2023-04-06T00:33:45;18.90;;;15.40;;
9496;SDS011;4786;51.270;4.456;2023-04-06T00:36:11;23.50;;;16.60;;
9496;SDS011;4786;51.270;4.456;2023-04-06T00:38:36;21.53;;;16.97;;
9496;SDS011;4786;51.270;4.456;2023-04-06T00:41:03;20.57;;;16.57;;
9496;SDS011;4786;51.270;4.456;2023-04-06T00:43:29;17.93;;;15.47;;
9496;SDS011;4786;51.270;4.456;2023-04-06T00:45:56;19.00;;;16.00;;
9496;SDS011;4786;51.270;4.456;2023-04-06T00:48:21;19.03;;;16.27;;
9496;SDS011;4786;51.270;4.456;2023-04-06T00:50:47;20.63;;;15.53;;
9496;SDS011;4786;51.270;4.456;2023-04-06T00:53:13;20.27;;;16.00;;
9496;SDS011;4786;51.270;4.456;2023-04-06T00:55:39;18.37;;;15.27;;
9496;SDS011;4786;51.270;4.456;2023-04-06T00:58:06;22.47;;;16.23;;
9496;SDS011;4786;51.270;4.456;2023-04-06T01:00:32;19.60;;;16.97;;
9496;SDS011;4786;51.270;4.456;2023-04-06T01:02:59;18.40;;;15.53;;
9496;SDS011;4786;51.270;4.456;2023-04-06T01:05:25;22.40;;;15.23;;
9496;SDS011;4786;51.270;4.456;2023-04-06T01:07:51;21.20;;;16.93;;
9496;SDS011;4786;51.270;4.456;2023-04-06T01:10:24;18.90;;;15.93;;
9496;SDS011;4786;51.270;4.456;2023-04-06T01:12:52;19.87;;;16.40;;
9496;SDS011;4786;51.270;4.456;2023-04-06T01:15:18;18.87;;;16.00;;
9496;SDS011;4786;51.270;4.456;2023-04-06T01:17:46;18.77;;;15.10;;
9496;SDS011;4786;51.270;4.456;2023-04-06T01:20:12;19.77;;;15.50;;
9496;SDS011;4786;51.270;4.456;2023-04-06T01:22:38;20.10;;;15.50;;
9496;SDS011;4786;51.270;4.456;2023-04-06T01:25:03;19.63;;;14.83;;
9496;SDS011;4786;51.270;4.456;2023-04-06T01:27:30;21.63;;;15.73;;
9496;SDS011;4786;51.270;4.456;2023-04-06T01:29:56;17.33;;;14.43;;
9496;SDS011;4786;51.270;4.456;2023-04-06T01:32:22;20.77;;;15.10;;
9496;SDS011;4786;51.270;4.456;2023-04-06T01:34:49;18.83;;;14.53;;
9496;SDS011;4786;51.270;4.456;2023-04-06T01:37:15;18.87;;;15.20;;
9496;SDS011;4786;51.270;4.456;2023-04-06T01:39:42;21.90;;;15.97;;
9496;SDS011;4786;51.270;4.456;2023-04-06T01:42:10;20.37;;;14.70;;
9496;SDS011;4786;51.270;4.456;2023-04-06T01:44:36;18.87;;;14.33;;
9496;SDS011;4786;51.270;4.456;2023-04-06T01:47:02;18.37;;;14.13;;
9496;SDS011;4786;51.270;4.456;2023-04-06T01:49:28;19.03;;;14.57;;
9496;SDS011;4786;51.270;4.456;2023-04-06T01:51:53;18.17;;;13.97;;
9496;SDS011;4786;51.270;4.456;2023-04-06T01:54:19;19.70;;;14.43;;
9496;SDS011;4786;51.270;4.456;2023-04-06T01:56:46;19.13;;;14.27;;
9496;SDS011;4786;51.270;4.456;2023-04-06T01:59:12;16.90;;;13.93;;
9496;SDS011;4786;51.270;4.456;2023-04-06T02:01:38;16.30;;;14.23;;
9496;SDS011;4786;51.270;4.456;2023-04-06T02:04:04;17.60;;;13.73;;
9496;SDS011;4786;51.270;4.456;2023-04-06T02:06:30;16.50;;;13.83;;
9496;SDS011;4786;51.270;4.456;2023-04-06T02:08:56;18.83;;;14.03;;
9496;SDS011;4786;51.270;4.456;2023-04-06T02:11:22;17.10;;;14.00;;
9496;SDS011;4786;51.270;4.456;2023-04-06T02:13:48;17.43;;;14.30;;
9496;SDS011;4786;51.270;4.456;2023-04-06T02:16:14;21.53;;;14.70;;
9496;SDS011;4786;51.270;4.456;2023-04-06T02:18:40;20.37;;;14.57;;
9496;SDS011;4786;51.270;4.456;2023-04-06T02:21:06;19.40;;;14.47;;
9496;SDS011;4786;51.270;4.456;2023-04-06T02:23:33;18.43;;;14.80;;
9496;SDS011;4786;51.270;4.456;2023-04-06T02:25:58;16.77;;;13.53;;
9496;SDS011;4786;51.270;4.456;2023-04-06T02:28:25;16.50;;;14.00;;
9496;SDS011;4786;51.270;4.456;2023-04-06T02:30:51;18.50;;;14.53;;
9496;SDS011;4786;51.270;4.456;2023-04-06T02:33:17;18.03;;;14.23;;
9496;SDS011;4786;51.270;4.456;2023-04-06T02:35:44;17.03;;;14.93;;
9496;SDS011;4786;51.270;4.456;2023-04-06T02:38:10;17.37;;;13.47;;
9496;SDS011;4786;51.270;4.456;2023-04-06T02:40:36;18.13;;;14.20;;
9496;SDS011;4786;51.270;4.456;2023-04-06T02:43:02;16.47;;;12.93;;
9496;SDS011;4786;51.270;4.456;2023-04-06T02:45:28;16.83;;;13.87;;
9496;SDS011;4786;51.270;4.456;2023-04-06T02:47:55;15.83;;;12.87;;
9496;SDS011;4786;51.270;4.456;2023-04-06T02:50:21;15.70;;;12.83;;
9496;SDS011;4786;51.270;4.456;2023-04-06T02:52:47;16.17;;;13.53;;
9496;SDS011;4786;51.270;4.456;2023-04-06T02:55:13;17.20;;;13.63;;
9496;SDS011;4786;51.270;4.456;2023-04-06T02:57:39;17.20;;;13.50;;
9496;SDS011;4786;51.270;4.456;2023-04-06T03:00:05;15.50;;;13.20;;
9496;SDS011;4786;51.270;4.456;2023-04-06T03:02:31;17.10;;;12.43;;
9496;SDS011;4786;51.270;4.456;2023-04-06T03:04:58;15.47;;;12.67;;
9496;SDS011;4786;51.270;4.456;2023-04-06T03:07:24;18.00;;;13.93;;
9496;SDS011;4786;51.270;4.456;2023-04-06T03:09:50;15.50;;;13.33;;
9496;SDS011;4786;51.270;4.456;2023-04-06T03:12:16;18.50;;;13.20;;
9496;SDS011;4786;51.270;4.456;2023-04-06T03:14:42;15.60;;;13.20;;
9496;SDS011;4786;51.270;4.456;2023-04-06T03:17:08;19.50;;;14.07;;
9496;SDS011;4786;51.270;4.456;2023-04-06T03:19:34;14.63;;;12.03;;
9496;SDS011;4786;51.270;4.456;2023-04-06T03:22:00;18.40;;;13.43;;
9496;SDS011;4786;51.270;4.456;2023-04-06T03:24:26;16.47;;;12.47;;
9496;SDS011;4786;51.270;4.456;2023-04-06T03:26:52;17.87;;;12.80;;
9496;SDS011;4786;51.270;4.456;2023-04-06T03:29:18;15.13;;;12.73;;
9496;SDS011;4786;51.270;4.456;2023-04-06T03:31:45;19.17;;;14.43;;
9496;SDS011;4786;51.270;4.456;2023-04-06T03:34:11;16.30;;;13.53;;
9496;SDS011;4786;51.270;4.456;2023-04-06T03:36:37;17.63;;;13.33;;
9496;SDS011;4786;51.270;4.456;2023-04-06T03:39:03;15.37;;;12.67;;
9496;SDS011;4786;51.270;4.456;2023-04-06T03:41:29;16.77;;;12.43;;
9496;SDS011;4786;51.270;4.456;2023-04-06T03:43:56;16.97;;;13.27;;
9496;SDS011;4786;51.270;4.456;2023-04-06T03:46:21;15.47;;;12.90;;
9496;SDS011;4786;51.270;4.456;2023-04-06T03:48:48;14.27;;;12.40;;
9496;SDS011;4786;51.270;4.456;2023-04-06T03:51:14;16.00;;;12.47;;
9496;SDS011;4786;51.270;4.456;2023-04-06T03:53:40;15.67;;;12.43;;
9496;SDS011;4786;51.270;4.456;2023-04-06T03:56:07;16.30;;;13.17;;
9496;SDS011;4786;51.270;4.456;2023-04-06T03:58:33;15.53;;;12.43;;
9496;SDS011;4786;51.270;4.456;2023-04-06T04:00:59;16.20;;;13.13;;
9496;SDS011;4786;51.270;4.456;2023-04-06T04:03:26;15.97;;;12.93;;
9496;SDS011;4786;51.270;4.456;2023-04-06T04:05:52;16.47;;;13.27;;
9496;SDS011;4786;51.270;4.456;2023-04-06T04:08:20;15.33;;;12.93;;
9496;SDS011;4786;51.270;4.456;2023-04-06T04:10:45;20.17;;;13.63;;
9496;SDS011;4786;51.270;4.456;2023-04-06T04:13:12;19.27;;;13.70;;
9496;SDS011;4786;51.270;4.456;2023-04-06T04:15:37;16.07;;;12.60;;
9496;SDS011;4786;51.270;4.456;2023-04-06T04:18:03;17.50;;;12.27;;
9496;SDS011;4786;51.270;4.456;2023-04-06T04:20:29;15.37;;;12.03;;
9496;SDS011;4786;51.270;4.456;2023-04-06T04:22:55;16.80;;;13.53;;
9496;SDS011;4786;51.270;4.456;2023-04-06T04:25:22;15.80;;;12.53;;
9496;SDS011;4786;51.270;4.456;2023-04-06T04:27:48;15.90;;;12.83;;
9496;SDS011;4786;51.270;4.456;2023-04-06T04:30:15;17.37;;;13.20;;
9496;SDS011;4786;51.270;4.456;2023-04-06T04:32:41;16.90;;;12.67;;
9496;SDS011;4786;51.270;4.456;2023-04-06T04:35:07;19.53;;;14.17;;
9496;SDS011;4786;51.270;4.456;2023-04-06T04:37:34;16.60;;;12.80;;
9496;SDS011;4786;51.270;4.456;2023-04-06T04:40:00;18.40;;;13.63;;
9496;SDS011;4786;51.270;4.456;2023-04-06T04:42:26;16.73;;;13.27;;
9496;SDS011;4786;51.270;4.456;2023-04-06T04:44:51;18.37;;;13.40;;
9496;SDS011;4786;51.270;4.456;2023-04-06T04:47:18;19.20;;;12.60;;
9496;SDS011;4786;51.270;4.456;2023-04-06T04:49:44;20.17;;;13.83;;
9496;SDS011;4786;51.270;4.456;2023-04-06T04:52:10;18.00;;;13.57;;
9496;SDS011;4786;51.270;4.456;2023-04-06T04:54:37;21.93;;;13.80;;
9496;SDS011;4786;51.270;4.456;2023-04-06T04:57:03;21.90;;;13.20;;
9496;SDS011;4786;51.270;4.456;2023-04-06T04:59:29;20.30;;;14.17;;
9496;SDS011;4786;51.270;4.456;2023-04-06T05:01:55;18.30;;;13.40;;
9496;SDS011;4786;51.270;4.456;2023-04-06T05:04:22;16.70;;;12.43;;
9496;SDS011;4786;51.270;4.456;2023-04-06T05:06:48;16.00;;;12.63;;
9496;SDS011;4786;51.270;4.456;2023-04-06T05:09:14;17.87;;;13.93;;
9496;SDS011;4786;51.270;4.456;2023-04-06T05:11:40;17.53;;;13.20;;
9496;SDS011;4786;51.270;4.456;2023-04-06T05:14:07;19.57;;;13.47;;
9496;SDS011;4786;51.270;4.456;2023-04-06T05:16:33;16.97;;;12.70;;
9496;SDS011;4786;51.270;4.456;2023-04-06T05:18:59;17.57;;;14.50;;
9496;SDS011;4786;51.270;4.456;2023-04-06T05:21:26;18.87;;;13.13;;
9496;SDS011;4786;51.270;4.456;2023-04-06T05:23:53;19.60;;;13.43;;
9496;SDS011;4786;51.270;4.456;2023-04-06T05:26:18;18.50;;;13.80;;
9496;SDS011;4786;51.270;4.456;2023-04-06T05:28:44;17.70;;;13.17;;
9496;SDS011;4786;51.270;4.456;2023-04-06T05:31:11;22.27;;;14.07;;
9496;SDS011;4786;51.270;4.456;2023-04-06T05:33:37;16.30;;;12.93;;
9496;SDS011;4786;51.270;4.456;2023-04-06T05:36:03;19.07;;;13.57;;
9496;SDS011;4786;51.270;4.456;2023-04-06T05:38:30;19.30;;;14.57;;
9496;SDS011;4786;51.270;4.456;2023-04-06T05:40:58;19.07;;;13.43;;
9496;SDS011;4786;51.270;4.456;2023-04-06T05:43:23;18.87;;;13.60;;
9496;SDS011;4786;51.270;4.456;2023-04-06T05:45:50;17.30;;;12.37;;
9496;SDS011;4786;51.270;4.456;2023-04-06T05:48:16;19.57;;;13.43;;
9496;SDS011;4786;51.270;4.456;2023-04-06T05:50:41;20.80;;;13.07;;
9496;SDS011;4786;51.270;4.456;2023-04-06T05:53:07;16.70;;;12.53;;
9496;SDS011;4786;51.270;4.456;2023-04-06T05:55:33;15.67;;;13.00;;
9496;SDS011;4786;51.270;4.456;2023-04-06T05:57:59;19.70;;;13.37;;
9496;SDS011;4786;51.270;4.456;2023-04-06T06:00:25;18.97;;;14.07;;
9496;SDS011;4786;51.270;4.456;2023-04-06T06:02:51;21.23;;;14.90;;
9496;SDS011;4786;51.270;4.456;2023-04-06T06:05:17;17.70;;;13.77;;
9496;SDS011;4786;51.270;4.456;2023-04-06T06:07:43;16.27;;;14.30;;
9496;SDS011;4786;51.270;4.456;2023-04-06T06:10:09;22.13;;;14.47;;
9496;SDS011;4786;51.270;4.456;2023-04-06T06:12:35;17.17;;;13.70;;
9496;SDS011;4786;51.270;4.456;2023-04-06T06:15:01;19.80;;;14.23;;
9496;SDS011;4786;51.270;4.456;2023-04-06T06:17:28;24.40;;;16.17;;
9496;SDS011;4786;51.270;4.456;2023-04-06T06:19:54;25.07;;;17.40;;
9496;SDS011;4786;51.270;4.456;2023-04-06T06:22:20;24.83;;;19.40;;
9496;SDS011;4786;51.270;4.456;2023-04-06T06:24:46;28.40;;;20.93;;
9496;SDS011;4786;51.270;4.456;2023-04-06T06:27:12;29.20;;;21.83;;
9496;SDS011;4786;51.270;4.456;2023-04-06T06:29:38;25.90;;;20.70;;
9496;SDS011;4786;51.270;4.456;2023-04-06T06:32:04;26.90;;;22.53;;
9496;SDS011;4786;51.270;4.456;2023-04-06T06:34:30;28.63;;;21.37;;
9496;SDS011;4786;51.270;4.456;2023-04-06T06:36:56;27.07;;;22.87;;
9496;SDS011;4786;51.270;4.456;2023-04-06T06:39:22;27.40;;;22.70;;
9496;SDS011;4786;51.270;4.456;2023-04-06T06:41:48;30.03;;;23.20;;
9496;SDS011;4786;51.270;4.456;2023-04-06T06:44:14;30.00;;;22.97;;
9496;SDS011;4786;51.270;4.456;2023-04-06T06:46:41;30.47;;;23.07;;
9496;SDS011;4786;51.270;4.456;2023-04-06T06:49:07;28.90;;;22.43;;
9496;SDS011;4786;51.270;4.456;2023-04-06T06:51:36;26.73;;;21.00;;
9496;SDS011;4786;51.270;4.456;2023-04-06T06:54:01;33.50;;;23.33;;
9496;SDS011;4786;51.270;4.456;2023-04-06T06:56:27;27.73;;;21.47;;
9496;SDS011;4786;51.270;4.456;2023-04-06T06:58:54;26.80;;;21.87;;
9496;SDS011;4786;51.270;4.456;2023-04-06T07:01:20;29.40;;;22.07;;
9496;SDS011;4786;51.270;4.456;2023-04-06T07:03:45;25.43;;;21.37;;
9496;SDS011;4786;51.270;4.456;2023-04-06T07:06:11;29.77;;;22.40;;
9496;SDS011;4786;51.270;4.456;2023-04-06T07:08:38;25.87;;;22.47;;
9496;SDS011;4786;51.270;4.456;2023-04-06T07:11:04;26.53;;;22.97;;
9496;SDS011;4786;51.270;4.456;2023-04-06T07:13:29;24.67;;;22.00;;
9496;SDS011;4786;51.270;4.456;2023-04-06T07:15:55;27.53;;;20.90;;
9496;SDS011;4786;51.270;4.456;2023-04-06T07:18:21;25.30;;;17.97;;
9496;SDS011;4786;51.270;4.456;2023-04-06T07:20:47;26.80;;;18.70;;
9496;SDS011;4786;51.270;4.456;2023-04-06T07:23:13;22.97;;;17.67;;
9496;SDS011;4786;51.270;4.456;2023-04-06T07:25:40;21.60;;;17.90;;
9496;SDS011;4786;51.270;4.456;2023-04-06T07:28:06;23.90;;;17.47;;
9496;SDS011;4786;51.270;4.456;2023-04-06T07:30:32;19.03;;;14.40;;
9496;SDS011;4786;51.270;4.456;2023-04-06T07:32:59;20.20;;;15.37;;
9496;SDS011;4786;51.270;4.456;2023-04-06T07:35:25;19.33;;;15.10;;
9496;SDS011;4786;51.270;4.456;2023-04-06T07:37:52;16.10;;;13.87;;
9496;SDS011;4786;51.270;4.456;2023-04-06T07:40:19;16.17;;;14.33;;
9496;SDS011;4786;51.270;4.456;2023-04-06T07:42:45;17.70;;;13.77;;
9496;SDS011;4786;51.270;4.456;2023-04-06T07:45:11;20.90;;;15.53;;
9496;SDS011;4786;51.270;4.456;2023-04-06T07:47:37;19.07;;;14.03;;
9496;SDS011;4786;51.270;4.456;2023-04-06T07:50:03;17.73;;;14.57;;
9496;SDS011;4786;51.270;4.456;2023-04-06T07:52:30;16.13;;;14.10;;
9496;SDS011;4786;51.270;4.456;2023-04-06T07:54:57;20.67;;;14.27;;
9496;SDS011;4786;51.270;4.456;2023-04-06T07:57:23;19.43;;;14.53;;
9496;SDS011;4786;51.270;4.456;2023-04-06T07:59:49;16.90;;;13.67;;
9496;SDS011;4786;51.270;4.456;2023-04-06T08:02:15;19.63;;;13.70;;
9496;SDS011;4786;51.270;4.456;2023-04-06T08:04:42;19.20;;;13.20;;
9496;SDS011;4786;51.270;4.456;2023-04-06T08:07:08;13.10;;;11.30;;
9496;SDS011;4786;51.270;4.456;2023-04-06T08:09:34;17.77;;;11.87;;
9496;SDS011;4786;51.270;4.456;2023-04-06T08:12:00;16.63;;;11.83;;
9496;SDS011;4786;51.270;4.456;2023-04-06T08:14:26;14.83;;;12.27;;
9496;SDS011;4786;51.270;4.456;2023-04-06T08:16:51;15.30;;;11.10;;
9496;SDS011;4786;51.270;4.456;2023-04-06T08:19:18;13.13;;;11.77;;
9496;SDS011;4786;51.270;4.456;2023-04-06T08:21:44;12.33;;;10.70;;
9496;SDS011;4786;51.270;4.456;2023-04-06T08:24:11;12.73;;;11.20;;
9496;SDS011;4786;51.270;4.456;2023-04-06T08:26:37;12.10;;;10.50;;
9496;SDS011;4786;51.270;4.456;2023-04-06T08:29:04;12.03;;;10.37;;
9496;SDS011;4786;51.270;4.456;2023-04-06T08:31:32;14.30;;;11.33;;
9496;SDS011;4786;51.270;4.456;2023-04-06T08:33:58;16.67;;;11.63;;
9496;SDS011;4786;51.270;4.456;2023-04-06T08:36:25;15.73;;;10.73;;
9496;SDS011;4786;51.270;4.456;2023-04-06T08:38:51;14.83;;;10.90;;
9496;SDS011;4786;51.270;4.456;2023-04-06T08:41:17;14.30;;;11.70;;
9496;SDS011;4786;51.270;4.456;2023-04-06T08:46:13;14.43;;;11.97;;
9496;SDS011;4786;51.270;4.456;2023-04-06T08:48:41;12.47;;;10.90;;
9496;SDS011;4786;51.270;4.456;2023-04-06T08:51:08;15.40;;;11.97;;
9496;SDS011;4786;51.270;4.456;2023-04-06T08:53:36;12.37;;;10.73;;
9496;SDS011;4786;51.270;4.456;2023-04-06T08:56:02;13.97;;;10.83;;
9496;SDS011;4786;51.270;4.456;2023-04-06T08:58:32;14.17;;;10.10;;
9496;SDS011;4786;51.270;4.456;2023-04-06T09:01:05;10.80;;;9.70;;
9496;SDS011;4786;51.270;4.456;2023-04-06T09:03:39;12.80;;;10.03;;
9496;SDS011;4786;51.270;4.456;2023-04-06T09:06:06;12.33;;;9.27;;
9496;SDS011;4786;51.270;4.456;2023-04-06T09:08:33;12.83;;;9.27;;
9496;SDS011;4786;51.270;4.456;2023-04-06T09:11:01;17.40;;;10.07;;
9496;SDS011;4786;51.270;4.456;2023-04-06T09:13:28;16.00;;;9.67;;
9496;SDS011;4786;51.270;4.456;2023-04-06T09:16:01;13.70;;;8.90;;
9496;SDS011;4786;51.270;4.456;2023-04-06T09:18:28;14.57;;;8.87;;
9496;SDS011;4786;51.270;4.456;2023-04-06T09:21:01;11.93;;;8.57;;
9496;SDS011;4786;51.270;4.456;2023-04-06T09:23:28;9.37;;;8.00;;
9496;SDS011;4786;51.270;4.456;2023-04-06T09:26:09;11.47;;;8.17;;
9496;SDS011;4786;51.270;4.456;2023-04-06T09:28:52;11.53;;;8.70;;
9496;SDS011;4786;51.270;4.456;2023-04-06T09:31:23;9.93;;;8.20;;
9496;SDS011;4786;51.270;4.456;2023-04-06T09:33:50;10.83;;;8.10;;
9496;SDS011;4786;51.270;4.456;2023-04-06T09:36:17;8.40;;;7.17;;
9496;SDS011;4786;51.270;4.456;2023-04-06T09:39:01;8.83;;;7.80;;
9496;SDS011;4786;51.270;4.456;2023-04-06T09:41:29;10.00;;;7.50;;
9496;SDS011;4786;51.270;4.456;2023-04-06T09:46:28;10.37;;;7.43;;
9496;SDS011;4786;51.270;4.456;2023-04-06T09:49:06;10.13;;;7.67;;
9496;SDS011;4786;51.270;4.456;2023-04-06T09:51:37;9.93;;;7.57;;
9496;SDS011;4786;51.270;4.456;2023-04-06T09:54:03;10.43;;;7.97;;
9496;SDS011;4786;51.270;4.456;2023-04-06T09:56:31;9.93;;;7.50;;
9496;SDS011;4786;51.270;4.456;2023-04-06T09:59:20;11.40;;;8.20;;
9496;SDS011;4786;51.270;4.456;2023-04-06T10:01:55;12.73;;;8.17;;
9496;SDS011;4786;51.270;4.456;2023-04-06T10:07:06;9.27;;;8.37;;
9496;SDS011;4786;51.270;4.456;2023-04-06T10:09:33;9.97;;;8.23;;
9496;SDS011;4786;51.270;4.456;2023-04-06T10:12:04;11.03;;;8.67;;
9496;SDS011;4786;51.270;4.456;2023-04-06T10:14:32;11.50;;;8.77;;
9496;SDS011;4786;51.270;4.456;2023-04-06T10:17:02;12.37;;;9.23;;
9496;SDS011;4786;51.270;4.456;2023-04-06T10:19:29;11.13;;;8.93;;
9496;SDS011;4786;51.270;4.456;2023-04-06T10:22:07;11.27;;;9.43;;
9496;SDS011;4786;51.270;4.456;2023-04-06T10:24:35;12.33;;;9.37;;
9496;SDS011;4786;51.270;4.456;2023-04-06T10:27:01;12.37;;;8.40;;
9496;SDS011;4786;51.270;4.456;2023-04-06T10:29:28;12.27;;;9.50;;
9496;SDS011;4786;51.270;4.456;2023-04-06T10:31:54;10.93;;;9.83;;
9496;SDS011;4786;51.270;4.456;2023-04-06T10:34:20;11.40;;;9.60;;
9496;SDS011;4786;51.270;4.456;2023-04-06T10:36:46;12.37;;;9.27;;
9496;SDS011;4786;51.270;4.456;2023-04-06T10:39:12;11.93;;;9.77;;
9496;SDS011;4786;51.270;4.456;2023-04-06T10:41:41;12.67;;;10.03;;
9496;SDS011;4786;51.270;4.456;2023-04-06T10:44:30;12.60;;;9.70;;
9496;SDS011;4786;51.270;4.456;2023-04-06T10:46:56;13.40;;;10.40;;
9496;SDS011;4786;51.270;4.456;2023-04-06T10:49:25;12.73;;;9.83;;
9496;SDS011;4786;51.270;4.456;2023-04-06T10:51:51;11.67;;;10.40;;
9496;SDS011;4786;51.270;4.456;2023-04-06T10:54:20;13.97;;;10.47;;
9496;SDS011;4786;51.270;4.456;2023-04-06T10:56:48;13.30;;;9.80;;
9496;SDS011;4786;51.270;4.456;2023-04-06T10:59:18;14.10;;;10.30;;
9496;SDS011;4786;51.270;4.456;2023-04-06T11:01:45;12.10;;;10.70;;
9496;SDS011;4786;51.270;4.456;2023-04-06T11:04:15;13.53;;;10.63;;
9496;SDS011;4786;51.270;4.456;2023-04-06T11:06:48;14.17;;;10.13;;
9496;SDS011;4786;51.270;4.456;2023-04-06T11:11:54;12.73;;;10.43;;
9496;SDS011;4786;51.270;4.456;2023-04-06T11:14:21;13.10;;;9.97;;
9496;SDS011;4786;51.270;4.456;2023-04-06T11:16:47;14.57;;;9.77;;
9496;SDS011;4786;51.270;4.456;2023-04-06T11:19:15;13.13;;;10.23;;
9496;SDS011;4786;51.270;4.456;2023-04-06T11:21:45;13.33;;;10.23;;
9496;SDS011;4786;51.270;4.456;2023-04-06T11:24:15;11.70;;;10.13;;
9496;SDS011;4786;51.270;4.456;2023-04-06T11:26:45;12.50;;;10.30;;
9496;SDS011;4786;51.270;4.456;2023-04-06T11:29:23;13.77;;;10.57;;
9496;SDS011;4786;51.270;4.456;2023-04-06T11:31:52;12.17;;;9.90;;
9496;SDS011;4786;51.270;4.456;2023-04-06T11:34:25;11.83;;;10.23;;
9496;SDS011;4786;51.270;4.456;2023-04-06T11:36:57;13.17;;;10.80;;
9496;SDS011;4786;51.270;4.456;2023-04-06T11:39:26;13.77;;;11.43;;
9496;SDS011;4786;51.270;4.456;2023-04-06T11:41:54;14.70;;;11.73;;
9496;SDS011;4786;51.270;4.456;2023-04-06T11:47:01;12.40;;;11.10;;
9496;SDS011;4786;51.270;4.456;2023-04-06T11:49:29;12.87;;;11.40;;
9496;SDS011;4786;51.270;4.456;2023-04-06T11:51:57;14.33;;;11.07;;
9496;SDS011;4786;51.270;4.456;2023-04-06T11:57:04;12.93;;;11.17;;
9496;SDS011;4786;51.270;4.456;2023-04-06T11:59:31;13.17;;;11.20;;
9496;SDS011;4786;51.270;4.456;2023-04-06T12:01:57;16.73;;;12.47;;
9496;SDS011;4786;51.270;4.456;2023-04-06T12:04:23;15.90;;;12.00;;
9496;SDS011;4786;51.270;4.456;2023-04-06T12:06:50;13.80;;;12.13;;
9496;SDS011;4786;51.270;4.456;2023-04-06T12:09:16;15.87;;;12.50;;
9496;SDS011;4786;51.270;4.456;2023-04-06T12:11:43;17.27;;;12.30;;
9496;SDS011;4786;51.270;4.456;2023-04-06T12:14:09;15.43;;;12.33;;
9496;SDS011;4786;51.270;4.456;2023-04-06T12:16:35;14.50;;;12.20;;
9496;SDS011;4786;51.270;4.456;2023-04-06T12:19:01;14.97;;;13.20;;
9496;SDS011;4786;51.270;4.456;2023-04-06T12:21:27;14.17;;;12.67;;
9496;SDS011;4786;51.270;4.456;2023-04-06T12:23:55;15.07;;;12.73;;
9496;SDS011;4786;51.270;4.456;2023-04-06T12:26:22;14.77;;;12.93;;
9496;SDS011;4786;51.270;4.456;2023-04-06T12:28:48;15.00;;;12.70;;
9496;SDS011;4786;51.270;4.456;2023-04-06T12:31:18;13.70;;;12.30;;
9496;SDS011;4786;51.270;4.456;2023-04-06T12:33:48;14.90;;;13.10;;
9496;SDS011;4786;51.270;4.456;2023-04-06T12:36:16;14.07;;;12.50;;
9496;SDS011;4786;51.270;4.456;2023-04-06T12:38:44;14.53;;;12.90;;
9496;SDS011;4786;51.270;4.456;2023-04-06T12:41:11;13.23;;;11.93;;
9496;SDS011;4786;51.270;4.456;2023-04-06T12:43:37;16.70;;;13.77;;
9496;SDS011;4786;51.270;4.456;2023-04-06T12:46:06;13.83;;;12.37;;
9496;SDS011;4786;51.270;4.456;2023-04-06T12:48:33;14.80;;;12.30;;
9496;SDS011;4786;51.270;4.456;2023-04-06T12:51:05;14.27;;;12.77;;
9496;SDS011;4786;51.270;4.456;2023-04-06T12:53:32;15.73;;;12.20;;
9496;SDS011;4786;51.270;4.456;2023-04-06T12:56:01;14.27;;;12.77;;
9496;SDS011;4786;51.270;4.456;2023-04-06T12:58:27;14.03;;;12.30;;
9496;SDS011;4786;51.270;4.456;2023-04-06T13:00:54;14.27;;;12.67;;
9496;SDS011;4786;51.270;4.456;2023-04-06T13:03:23;14.00;;;12.07;;
9496;SDS011;4786;51.270;4.456;2023-04-06T13:05:50;13.87;;;11.33;;
9496;SDS011;4786;51.270;4.456;2023-04-06T13:08:17;12.70;;;10.67;;
9496;SDS011;4786;51.270;4.456;2023-04-06T13:10:46;13.03;;;11.63;;
9496;SDS011;4786;51.270;4.456;2023-04-06T13:13:13;12.73;;;11.10;;
9496;SDS011;4786;51.270;4.456;2023-04-06T13:15:40;13.53;;;12.13;;
9496;SDS011;4786;51.270;4.456;2023-04-06T13:18:06;13.43;;;11.27;;
9496;SDS011;4786;51.270;4.456;2023-04-06T13:20:33;14.07;;;11.63;;
9496;SDS011;4786;51.270;4.456;2023-04-06T13:22:59;13.53;;;12.13;;
9496;SDS011;4786;51.270;4.456;2023-04-06T13:25:24;13.10;;;11.83;;
9496;SDS011;4786;51.270;4.456;2023-04-06T13:27:50;14.57;;;12.63;;
9496;SDS011;4786;51.270;4.456;2023-04-06T13:30:16;13.20;;;11.03;;
9496;SDS011;4786;51.270;4.456;2023-04-06T13:32:42;13.23;;;11.60;;
9496;SDS011;4786;51.270;4.456;2023-04-06T13:35:08;11.83;;;10.63;;
9496;SDS011;4786;51.270;4.456;2023-04-06T13:37:34;15.50;;;10.00;;
9496;SDS011;4786;51.270;4.456;2023-04-06T13:40:03;11.70;;;10.50;;
9496;SDS011;4786;51.270;4.456;2023-04-06T13:42:30;12.30;;;10.90;;
9496;SDS011;4786;51.270;4.456;2023-04-06T13:44:56;13.73;;;11.27;;
9496;SDS011;4786;51.270;4.456;2023-04-06T13:47:22;13.80;;;11.10;;
9496;SDS011;4786;51.270;4.456;2023-04-06T13:49:49;13.17;;;11.10;;
9496;SDS011;4786;51.270;4.456;2023-04-06T13:52:16;11.07;;;9.97;;
9496;SDS011;4786;51.270;4.456;2023-04-06T13:54:42;12.07;;;10.80;;
9496;SDS011;4786;51.270;4.456;2023-04-06T13:57:07;11.70;;;10.50;;
9496;SDS011;4786;51.270;4.456;2023-04-06T13:59:34;12.30;;;11.00;;
9496;SDS011;4786;51.270;4.456;2023-04-06T14:02:01;11.93;;;10.73;;
9496;SDS011;4786;51.270;4.456;2023-04-06T14:04:28;12.73;;;11.07;;
9496;SDS011;4786;51.270;4.456;2023-04-06T14:06:54;13.40;;;10.93;;
9496;SDS011;4786;51.270;4.456;2023-04-06T14:09:20;11.43;;;10.27;;
9496;SDS011;4786;51.270;4.456;2023-04-06T14:11:46;11.60;;;10.40;;
9496;SDS011;4786;51.270;4.456;2023-04-06T14:14:12;12.70;;;10.70;;
9496;SDS011;4786;51.270;4.456;2023-04-06T14:16:37;13.03;;;11.13;;
9496;SDS011;4786;51.270;4.456;2023-04-06T14:19:03;13.77;;;12.00;;
9496;SDS011;4786;51.270;4.456;2023-04-06T14:21:29;13.20;;;11.90;;
9496;SDS011;4786;51.270;4.456;2023-04-06T14:23:56;11.77;;;10.60;;
9496;SDS011;4786;51.270;4.456;2023-04-06T14:26:22;13.50;;;12.10;;
9496;SDS011;4786;51.270;4.456;2023-04-06T14:28:48;14.47;;;13.03;;
9496;SDS011;4786;51.270;4.456;2023-04-06T14:31:14;14.10;;;12.60;;
9496;SDS011;4786;51.270;4.456;2023-04-06T14:33:41;13.77;;;12.37;;
9496;SDS011;4786;51.270;4.456;2023-04-06T14:36:08;13.80;;;12.40;;
9496;SDS011;4786;51.270;4.456;2023-04-06T14:38:34;14.80;;;13.23;;
9496;SDS011;4786;51.270;4.456;2023-04-06T14:41:00;14.97;;;12.83;;
9496;SDS011;4786;51.270;4.456;2023-04-06T14:43:26;17.60;;;13.17;;
9496;SDS011;4786;51.270;4.456;2023-04-06T14:45:52;14.63;;;13.23;;
9496;SDS011;4786;51.270;4.456;2023-04-06T14:48:18;15.33;;;13.77;;
9496;SDS011;4786;51.270;4.456;2023-04-06T14:50:53;15.77;;;14.07;;
9496;SDS011;4786;51.270;4.456;2023-04-06T14:53:23;15.70;;;14.20;;
9496;SDS011;4786;51.270;4.456;2023-04-06T14:55:49;16.50;;;14.53;;
9496;SDS011;4786;51.270;4.456;2023-04-06T14:58:16;16.30;;;14.60;;
9496;SDS011;4786;51.270;4.456;2023-04-06T15:00:42;16.60;;;14.90;;
9496;SDS011;4786;51.270;4.456;2023-04-06T15:03:09;16.27;;;14.53;;
9496;SDS011;4786;51.270;4.456;2023-04-06T15:05:34;16.70;;;14.53;;